sensor_id;sensor_type;location;lat;lon;timestamp;temperature;humidity
37956;DHT22;23776;51.592;7.180;2022-11-20T00:01:05;-1.20;1.00
37956;DHT22;23776;51.592;7.180;2022-11-20T00:03:32;-1.30;1.00
37956;DHT22;23776;51.592;7.180;2022-11-20T00:06:07;-1.20;1.00
37956;DHT22;23776;51.592;7.180;2022-11-20T00:08:33;-1.30;1.00
37956;DHT22;23776;51.592;7.180;2022-11-20T00:11:06;-1.30;1.00
37956;DHT22;23776;51.592;7.180;2022-11-20T00:13:33;-1.30;1.00
37956;DHT22;23776;51.592;7.180;2022-11-20T00:16:00;-1.20;1.00
37956;DHT22;23776;51.592;7.180;2022-11-20T00:18:27;-1.30;1.00
37956;DHT22;23776;51.592;7.180;2022-11-20T00:20:53;-1.40;1.00
37956;DHT22;23776;51.592;7.180;2022-11-20T00:23:19;-1.50;1.00
37956;DHT22;23776;51.592;7.180;2022-11-20T00:25:44;-1.60;1.00
37956;DHT22;23776;51.592;7.180;2022-11-20T00:28:10;-1.60;1.00
37956;DHT22;23776;51.592;7.180;2022-11-20T00:30:36;-1.50;1.00
37956;DHT22;23776;51.592;7.180;2022-11-20T00:33:02;-1.50;1.00
37956;DHT22;23776;51.592;7.180;2022-11-20T00:35:27;-1.60;1.00
37956;DHT22;23776;51.592;7.180;2022-11-20T00:37:53;-1.60;1.00
37956;DHT22;23776;51.592;7.180;2022-11-20T00:40:19;-1.60;1.00
37956;DHT22;23776;51.592;7.180;2022-11-20T00:42:44;-1.60;1.00
37956;DHT22;23776;51.592;7.180;2022-11-20T00:45:10;-1.60;1.00
37956;DHT22;23776;51.592;7.180;2022-11-20T00:47:35;-1.60;1.00
37956;DHT22;23776;51.592;7.180;2022-11-20T00:50:01;-1.60;1.00
37956;DHT22;23776;51.592;7.180;2022-11-20T00:52:27;-1.50;1.00
37956;DHT22;23776;51.592;7.180;2022-11-20T00:54:52;-1.60;1.00
37956;DHT22;23776;51.592;7.180;2022-11-20T00:57:18;-1.60;1.00
37956;DHT22;23776;51.592;7.180;2022-11-20T00:59:43;-1.80;1.00
37956;DHT22;23776;51.592;7.180;2022-11-20T01:02:09;-1.80;1.00
37956;DHT22;23776;51.592;7.180;2022-11-20T01:04:34;-1.80;1.00
37956;DHT22;23776;51.592;7.180;2022-11-20T01:07:00;-1.80;1.00
37956;DHT22;23776;51.592;7.180;2022-11-20T01:09:26;-1.80;1.00
37956;DHT22;23776;51.592;7.180;2022-11-20T01:11:51;-1.80;1.00
37956;DHT22;23776;51.592;7.180;2022-11-20T01:14:18;-1.80;1.00
37956;DHT22;23776;51.592;7.180;2022-11-20T01:16:47;-1.70;1.00
37956;DHT22;23776;51.592;7.180;2022-11-20T01:19:19;-1.70;1.00
37956;DHT22;23776;51.592;7.180;2022-11-20T01:21:47;-1.80;1.00
37956;DHT22;23776;51.592;7.180;2022-11-20T01:24:17;-1.90;1.00
37956;DHT22;23776;51.592;7.180;2022-11-20T01:26:44;-1.80;1.00
37956;DHT22;23776;51.592;7.180;2022-11-20T01:29:17;-1.80;1.00
37956;DHT22;23776;51.592;7.180;2022-11-20T01:31:43;-1.70;1.00
37956;DHT22;23776;51.592;7.180;2022-11-20T01:34:11;-1.80;1.00
37956;DHT22;23776;51.592;7.180;2022-11-20T01:36:38;-1.80;1.00
37956;DHT22;23776;51.592;7.180;2022-11-20T01:39:16;-1.90;1.00
37956;DHT22;23776;51.592;7.180;2022-11-20T01:41:43;-1.90;1.00
37956;DHT22;23776;51.592;7.180;2022-11-20T01:44:54;-2.00;1.00
37956;DHT22;23776;51.592;7.180;2022-11-20T01:47:28;-1.90;1.00
37956;DHT22;23776;51.592;7.180;2022-11-20T01:53:05;-1.90;1.00
37956;DHT22;23776;51.592;7.180;2022-11-20T01:55:36;-1.90;1.00
37956;DHT22;23776;51.592;7.180;2022-11-20T01:58:05;-2.00;1.00
37956;DHT22;23776;51.592;7.180;2022-11-20T02:00:31;-1.90;1.00
37956;DHT22;23776;51.592;7.180;2022-11-20T02:03:09;-2.00;1.00
37956;DHT22;23776;51.592;7.180;2022-11-20T02:06:01;-2.00;1.00
37956;DHT22;23776;51.592;7.180;2022-11-20T02:08:29;-2.10;1.00
37956;DHT22;23776;51.592;7.180;2022-11-20T02:10:55;-2.00;1.00
37956;DHT22;23776;51.592;7.180;2022-11-20T02:13:21;-2.00;1.00
37956;DHT22;23776;51.592;7.180;2022-11-20T02:16:25;-1.90;1.00
37956;DHT22;23776;51.592;7.180;2022-11-20T02:18:51;-1.90;1.00
37956;DHT22;23776;51.592;7.180;2022-11-20T02:24:07;-1.80;1.00
37956;DHT22;23776;51.592;7.180;2022-11-20T02:26:42;-1.80;1.00
37956;DHT22;23776;51.592;7.180;2022-11-20T02:29:09;-0.80;1.00
37956;DHT22;23776;51.592;7.180;2022-11-20T02:31:41;-1.90;1.00
37956;DHT22;23776;51.592;7.180;2022-11-20T02:34:07;-1.90;1.00
37956;DHT22;23776;51.592;7.180;2022-11-20T02:36:35;-1.90;1.00
37956;DHT22;23776;51.592;7.180;2022-11-20T02:39:03;-1.90;1.00
37956;DHT22;23776;51.592;7.180;2022-11-20T02:41:36;-1.80;1.00
37956;DHT22;23776;51.592;7.180;2022-11-20T02:44:03;-1.90;1.00
37956;DHT22;23776;51.592;7.180;2022-11-20T02:46:29;-1.90;1.00
37956;DHT22;23776;51.592;7.180;2022-11-20T02:48:55;-2.00;1.00
37956;DHT22;23776;51.592;7.180;2022-11-20T02:51:21;-2.00;1.00
37956;DHT22;23776;51.592;7.180;2022-11-20T02:53:47;-2.00;1.00
37956;DHT22;23776;51.592;7.180;2022-11-20T02:56:13;-2.10;1.00
37956;DHT22;23776;51.592;7.180;2022-11-20T02:58:38;-2.10;1.00
37956;DHT22;23776;51.592;7.180;2022-11-20T03:01:04;-2.10;1.00
37956;DHT22;23776;51.592;7.180;2022-11-20T03:03:29;-2.00;1.00
37956;DHT22;23776;51.592;7.180;2022-11-20T03:05:55;-2.10;1.00
37956;DHT22;23776;51.592;7.180;2022-11-20T03:08:21;-2.00;1.00
37956;DHT22;23776;51.592;7.180;2022-11-20T03:10:46;-2.10;1.00
37956;DHT22;23776;51.592;7.180;2022-11-20T03:13:12;-2.10;1.00
37956;DHT22;23776;51.592;7.180;2022-11-20T03:15:38;-2.20;1.00
37956;DHT22;23776;51.592;7.180;2022-11-20T03:18:04;-2.10;1.00
37956;DHT22;23776;51.592;7.180;2022-11-20T03:20:29;-2.10;1.00
37956;DHT22;23776;51.592;7.180;2022-11-20T03:22:55;-2.10;1.00
37956;DHT22;23776;51.592;7.180;2022-11-20T03:25:21;-2.20;1.00
37956;DHT22;23776;51.592;7.180;2022-11-20T03:27:47;-2.20;1.00
37956;DHT22;23776;51.592;7.180;2022-11-20T03:30:13;-2.30;1.00
37956;DHT22;23776;51.592;7.180;2022-11-20T03:32:39;-2.40;1.00
37956;DHT22;23776;51.592;7.180;2022-11-20T03:35:05;-2.30;1.00
37956;DHT22;23776;51.592;7.180;2022-11-20T03:37:31;-2.30;1.00
37956;DHT22;23776;51.592;7.180;2022-11-20T03:39:57;-2.40;1.00
37956;DHT22;23776;51.592;7.180;2022-11-20T03:42:23;-2.50;1.00
37956;DHT22;23776;51.592;7.180;2022-11-20T03:45:07;-2.50;1.00
37956;DHT22;23776;51.592;7.180;2022-11-20T03:47:33;-2.30;1.00
37956;DHT22;23776;51.592;7.180;2022-11-20T03:49:58;-2.40;1.00
37956;DHT22;23776;51.592;7.180;2022-11-20T03:52:24;-2.40;1.00
37956;DHT22;23776;51.592;7.180;2022-11-20T03:54:49;-2.40;1.00
37956;DHT22;23776;51.592;7.180;2022-11-20T03:57:15;-2.30;1.00
37956;DHT22;23776;51.592;7.180;2022-11-20T03:59:41;-2.30;1.00
37956;DHT22;23776;51.592;7.180;2022-11-20T04:02:06;-2.30;1.00
37956;DHT22;23776;51.592;7.180;2022-11-20T04:04:32;-2.30;1.00
37956;DHT22;23776;51.592;7.180;2022-11-20T04:06:57;-2.40;1.00
37956;DHT22;23776;51.592;7.180;2022-11-20T04:09:23;-2.40;1.00
37956;DHT22;23776;51.592;7.180;2022-11-20T04:11:49;-2.40;1.00
37956;DHT22;23776;51.592;7.180;2022-11-20T04:14:15;-2.50;1.00
37956;DHT22;23776;51.592;7.180;2022-11-20T04:16:41;-2.60;1.00
37956;DHT22;23776;51.592;7.180;2022-11-20T04:19:10;-2.70;1.00
37956;DHT22;23776;51.592;7.180;2022-11-20T04:21:37;-2.80;1.00
37956;DHT22;23776;51.592;7.180;2022-11-20T04:24:03;-2.90;1.00
37956;DHT22;23776;51.592;7.180;2022-11-20T04:26:29;-3.10;1.00
37956;DHT22;23776;51.592;7.180;2022-11-20T04:28:55;-2.80;1.00
37956;DHT22;23776;51.592;7.180;2022-11-20T04:31:26;-2.90;1.00
37956;DHT22;23776;51.592;7.180;2022-11-20T04:33:53;-2.90;1.00
37956;DHT22;23776;51.592;7.180;2022-11-20T04:36:21;-2.70;1.00
37956;DHT22;23776;51.592;7.180;2022-11-20T04:38:54;-2.60;1.00
37956;DHT22;23776;51.592;7.180;2022-11-20T04:41:22;-2.30;1.00
37956;DHT22;23776;51.592;7.180;2022-11-20T04:43:49;-2.20;1.00
37956;DHT22;23776;51.592;7.180;2022-11-20T04:46:20;-2.10;1.00
37956;DHT22;23776;51.592;7.180;2022-11-20T04:48:46;-2.10;1.00
37956;DHT22;23776;51.592;7.180;2022-11-20T04:51:12;-2.10;1.00
37956;DHT22;23776;51.592;7.180;2022-11-20T04:53:38;-2.00;1.00
37956;DHT22;23776;51.592;7.180;2022-11-20T04:56:06;-1.90;1.00
37956;DHT22;23776;51.592;7.180;2022-11-20T04:58:33;-0.90;1.00
37956;DHT22;23776;51.592;7.180;2022-11-20T05:01:13;-1.80;1.00
37956;DHT22;23776;51.592;7.180;2022-11-20T05:03:40;-1.80;1.00
37956;DHT22;23776;51.592;7.180;2022-11-20T05:06:07;-1.70;1.00
37956;DHT22;23776;51.592;7.180;2022-11-20T05:08:33;-1.70;1.00
37956;DHT22;23776;51.592;7.180;2022-11-20T05:11:07;-1.60;1.00
37956;DHT22;23776;51.592;7.180;2022-11-20T05:13:33;-3.20;1.00
37956;DHT22;23776;51.592;7.180;2022-11-20T05:16:03;-1.40;1.00
37956;DHT22;23776;51.592;7.180;2022-11-20T05:18:29;-1.30;1.00
37956;DHT22;23776;51.592;7.180;2022-11-20T05:20:56;-1.30;1.00
37956;DHT22;23776;51.592;7.180;2022-11-20T05:23:22;-1.30;1.00
37956;DHT22;23776;51.592;7.180;2022-11-20T05:25:48;-1.20;1.00
37956;DHT22;23776;51.592;7.180;2022-11-20T05:28:13;-1.20;1.00
37956;DHT22;23776;51.592;7.180;2022-11-20T05:30:39;-1.10;1.00
37956;DHT22;23776;51.592;7.180;2022-11-20T05:33:04;-1.20;1.00
37956;DHT22;23776;51.592;7.180;2022-11-20T05:35:30;-1.10;1.00
37956;DHT22;23776;51.592;7.180;2022-11-20T05:37:56;-1.10;1.00
37956;DHT22;23776;51.592;7.180;2022-11-20T05:40:21;-1.00;1.00
37956;DHT22;23776;51.592;7.180;2022-11-20T05:42:47;-0.90;1.00
37956;DHT22;23776;51.592;7.180;2022-11-20T05:45:12;0.30;1.00
37956;DHT22;23776;51.592;7.180;2022-11-20T05:47:38;-0.80;1.00
37956;DHT22;23776;51.592;7.180;2022-11-20T05:50:03;-0.80;1.00
37956;DHT22;23776;51.592;7.180;2022-11-20T05:52:29;-0.90;1.00
37956;DHT22;23776;51.592;7.180;2022-11-20T05:54:55;-1.00;1.00
37956;DHT22;23776;51.592;7.180;2022-11-20T05:57:21;-1.00;1.00
37956;DHT22;23776;51.592;7.180;2022-11-20T05:59:47;-1.00;1.00
37956;DHT22;23776;51.592;7.180;2022-11-20T06:02:12;-1.10;1.00
37956;DHT22;23776;51.592;7.180;2022-11-20T06:04:38;-1.10;1.00
37956;DHT22;23776;51.592;7.180;2022-11-20T06:07:05;-1.10;1.00
37956;DHT22;23776;51.592;7.180;2022-11-20T06:09:31;-1.10;1.00
37956;DHT22;23776;51.592;7.180;2022-11-20T06:11:56;-1.20;1.00
37956;DHT22;23776;51.592;7.180;2022-11-20T06:14:22;-1.20;1.00
37956;DHT22;23776;51.592;7.180;2022-11-20T06:16:48;-1.10;1.00
37956;DHT22;23776;51.592;7.180;2022-11-20T06:19:14;-1.10;1.00
37956;DHT22;23776;51.592;7.180;2022-11-20T06:21:40;-1.20;1.00
37956;DHT22;23776;51.592;7.180;2022-11-20T06:24:09;-1.20;1.00
37956;DHT22;23776;51.592;7.180;2022-11-20T06:26:35;-1.20;1.00
37956;DHT22;23776;51.592;7.180;2022-11-20T06:29:00;-1.30;1.00
37956;DHT22;23776;51.592;7.180;2022-11-20T06:31:26;-1.30;1.00
37956;DHT22;23776;51.592;7.180;2022-11-20T06:33:52;-1.30;1.00
37956;DHT22;23776;51.592;7.180;2022-11-20T06:36:20;-1.20;1.00
37956;DHT22;23776;51.592;7.180;2022-11-20T06:38:46;-1.30;1.00
37956;DHT22;23776;51.592;7.180;2022-11-20T06:41:15;-1.40;1.00
37956;DHT22;23776;51.592;7.180;2022-11-20T06:43:41;-1.40;1.00
37956;DHT22;23776;51.592;7.180;2022-11-20T06:46:06;-1.40;1.00
37956;DHT22;23776;51.592;7.180;2022-11-20T06:48:33;-1.50;1.00
37956;DHT22;23776;51.592;7.180;2022-11-20T06:50:59;-1.50;1.00
37956;DHT22;23776;51.592;7.180;2022-11-20T06:53:25;-1.60;1.00
37956;DHT22;23776;51.592;7.180;2022-11-20T06:55:51;0.00;1.00
37956;DHT22;23776;51.592;7.180;2022-11-20T06:58:18;-1.70;1.00
37956;DHT22;23776;51.592;7.180;2022-11-20T07:00:43;-1.60;1.00
37956;DHT22;23776;51.592;7.180;2022-11-20T07:03:11;-1.80;1.00
37956;DHT22;23776;51.592;7.180;2022-11-20T07:05:37;-1.80;1.00
37956;DHT22;23776;51.592;7.180;2022-11-20T07:08:04;-1.70;1.00
37956;DHT22;23776;51.592;7.180;2022-11-20T07:10:31;-1.70;1.00
37956;DHT22;23776;51.592;7.180;2022-11-20T07:12:57;-1.70;1.00
37956;DHT22;23776;51.592;7.180;2022-11-20T07:15:24;-1.70;1.00
37956;DHT22;23776;51.592;7.180;2022-11-20T07:17:50;-1.80;1.00
37956;DHT22;23776;51.592;7.180;2022-11-20T07:20:15;-1.70;1.00
37956;DHT22;23776;51.592;7.180;2022-11-20T07:22:42;-1.70;1.00
37956;DHT22;23776;51.592;7.180;2022-11-20T07:25:08;-1.70;1.00
37956;DHT22;23776;51.592;7.180;2022-11-20T07:27:34;-1.70;1.00
37956;DHT22;23776;51.592;7.180;2022-11-20T07:30:00;-1.80;1.00
37956;DHT22;23776;51.592;7.180;2022-11-20T07:32:26;-2.00;1.00
37956;DHT22;23776;51.592;7.180;2022-11-20T07:34:51;-1.90;1.00
37956;DHT22;23776;51.592;7.180;2022-11-20T07:37:18;-1.80;1.00
37956;DHT22;23776;51.592;7.180;2022-11-20T07:39:43;-1.70;1.00
37956;DHT22;23776;51.592;7.180;2022-11-20T07:42:09;-1.70;1.00
37956;DHT22;23776;51.592;7.180;2022-11-20T07:44:35;-1.70;1.00
37956;DHT22;23776;51.592;7.180;2022-11-20T07:47:01;-1.80;1.00
37956;DHT22;23776;51.592;7.180;2022-11-20T07:49:27;-1.80;1.00
37956;DHT22;23776;51.592;7.180;2022-11-20T07:51:53;-1.80;1.00
37956;DHT22;23776;51.592;7.180;2022-11-20T07:54:22;-1.80;1.00
37956;DHT22;23776;51.592;7.180;2022-11-20T07:56:49;-1.70;1.00
37956;DHT22;23776;51.592;7.180;2022-11-20T07:59:15;-1.70;1.00
37956;DHT22;23776;51.592;7.180;2022-11-20T08:01:41;-1.60;1.00
37956;DHT22;23776;51.592;7.180;2022-11-20T08:04:07;-1.50;1.00
37956;DHT22;23776;51.592;7.180;2022-11-20T08:06:33;-1.40;1.00
37956;DHT22;23776;51.592;7.180;2022-11-20T08:08:59;-1.40;1.00
37956;DHT22;23776;51.592;7.180;2022-11-20T08:11:24;-1.50;1.00
37956;DHT22;23776;51.592;7.180;2022-11-20T08:14:08;-1.40;1.00
37956;DHT22;23776;51.592;7.180;2022-11-20T08:16:37;-1.40;1.00
37956;DHT22;23776;51.592;7.180;2022-11-20T08:19:02;-1.30;1.00
37956;DHT22;23776;51.592;7.180;2022-11-20T08:21:29;-1.30;1.00
37956;DHT22;23776;51.592;7.180;2022-11-20T08:23:55;-1.20;1.00
37956;DHT22;23776;51.592;7.180;2022-11-20T08:26:21;-1.10;1.00
37956;DHT22;23776;51.592;7.180;2022-11-20T08:28:47;-1.00;1.00
37956;DHT22;23776;51.592;7.180;2022-11-20T08:31:12;-0.90;1.00
37956;DHT22;23776;51.592;7.180;2022-11-20T08:33:38;-1.00;1.00
37956;DHT22;23776;51.592;7.180;2022-11-20T08:36:04;-1.20;1.00
37956;DHT22;23776;51.592;7.180;2022-11-20T08:38:30;-1.20;1.00
37956;DHT22;23776;51.592;7.180;2022-11-20T08:41:00;-1.10;1.00
37956;DHT22;23776;51.592;7.180;2022-11-20T08:43:45;-1.20;1.00
37956;DHT22;23776;51.592;7.180;2022-11-20T08:46:11;-1.00;1.00
37956;DHT22;23776;51.592;7.180;2022-11-20T08:48:36;-1.00;1.00
37956;DHT22;23776;51.592;7.180;2022-11-20T08:51:02;-1.00;1.00
37956;DHT22;23776;51.592;7.180;2022-11-20T08:53:28;-0.80;1.00
37956;DHT22;23776;51.592;7.180;2022-11-20T08:55:54;-0.70;1.00
37956;DHT22;23776;51.592;7.180;2022-11-20T08:58:20;-0.60;1.00
37956;DHT22;23776;51.592;7.180;2022-11-20T09:00:45;-0.50;1.00
37956;DHT22;23776;51.592;7.180;2022-11-20T09:03:11;-0.40;1.00
37956;DHT22;23776;51.592;7.180;2022-11-20T09:05:38;-0.20;1.00
37956;DHT22;23776;51.592;7.180;2022-11-20T09:08:04;-0.10;1.00
37956;DHT22;23776;51.592;7.180;2022-11-20T09:10:30;0.00;1.00
37956;DHT22;23776;51.592;7.180;2022-11-20T09:12:56;0.00;1.00
37956;DHT22;23776;51.592;7.180;2022-11-20T09:15:22;0.10;1.00
37956;DHT22;23776;51.592;7.180;2022-11-20T09:17:55;0.10;1.00
37956;DHT22;23776;51.592;7.180;2022-11-20T09:20:21;0.30;1.00
37956;DHT22;23776;51.592;7.180;2022-11-20T09:22:47;0.30;1.00
37956;DHT22;23776;51.592;7.180;2022-11-20T09:25:13;0.40;1.00
37956;DHT22;23776;51.592;7.180;2022-11-20T09:27:38;0.60;1.00
37956;DHT22;23776;51.592;7.180;2022-11-20T09:30:07;0.70;1.00
37956;DHT22;23776;51.592;7.180;2022-11-20T09:32:32;0.70;1.00
37956;DHT22;23776;51.592;7.180;2022-11-20T09:34:58;0.80;1.00
37956;DHT22;23776;51.592;7.180;2022-11-20T09:37:24;0.90;1.00
37956;DHT22;23776;51.592;7.180;2022-11-20T09:39:49;1.10;1.00
37956;DHT22;23776;51.592;7.180;2022-11-20T09:42:27;1.20;1.00
37956;DHT22;23776;51.592;7.180;2022-11-20T09:45:23;1.30;1.00
37956;DHT22;23776;51.592;7.180;2022-11-20T09:48:13;1.50;1.00
37956;DHT22;23776;51.592;7.180;2022-11-20T09:50:55;1.60;1.00
37956;DHT22;23776;51.592;7.180;2022-11-20T09:55:55;2.00;1.00
37956;DHT22;23776;51.592;7.180;2022-11-20T09:58:38;2.00;1.00
37956;DHT22;23776;51.592;7.180;2022-11-20T10:01:15;2.60;1.00
37956;DHT22;23776;51.592;7.180;2022-11-20T10:03:58;2.60;1.00
37956;DHT22;23776;51.592;7.180;2022-11-20T10:06:39;2.80;1.00
37956;DHT22;23776;51.592;7.180;2022-11-20T10:09:25;2.90;1.00
37956;DHT22;23776;51.592;7.180;2022-11-20T10:15:05;3.10;1.00
37956;DHT22;23776;51.592;7.180;2022-11-20T10:17:53;3.20;1.00
37956;DHT22;23776;51.592;7.180;2022-11-20T10:20:48;3.40;1.00
37956;DHT22;23776;51.592;7.180;2022-11-20T10:23:44;3.60;1.00
37956;DHT22;23776;51.592;7.180;2022-11-20T10:29:19;3.60;99.90
37956;DHT22;23776;51.592;7.180;2022-11-20T10:31:51;3.50;99.90
37956;DHT22;23776;51.592;7.180;2022-11-20T10:34:29;3.60;1.00
37956;DHT22;23776;51.592;7.180;2022-11-20T10:37:02;3.80;99.90
37956;DHT22;23776;51.592;7.180;2022-11-20T10:39:53;4.00;99.90
37956;DHT22;23776;51.592;7.180;2022-11-20T10:45:25;4.40;99.90
37956;DHT22;23776;51.592;7.180;2022-11-20T10:50:28;4.90;48.40
37956;DHT22;23776;51.592;7.180;2022-11-20T10:55:57;5.40;1.00
37956;DHT22;23776;51.592;7.180;2022-11-20T10:58:47;5.40;1.00
37956;DHT22;23776;51.592;7.180;2022-11-20T11:01:18;5.50;1.00
37956;DHT22;23776;51.592;7.180;2022-11-20T11:03:44;5.50;99.90
37956;DHT22;23776;51.592;7.180;2022-11-20T11:08:44;5.50;1.00
37956;DHT22;23776;51.592;7.180;2022-11-20T11:11:22;5.50;99.90
37956;DHT22;23776;51.592;7.180;2022-11-20T11:13:49;5.40;99.90
37956;DHT22;23776;51.592;7.180;2022-11-20T11:16:25;5.40;99.90
37956;DHT22;23776;51.592;7.180;2022-11-20T11:19:02;5.50;25.00
37956;DHT22;23776;51.592;7.180;2022-11-20T11:21:28;5.50;99.90
37956;DHT22;23776;51.592;7.180;2022-11-20T11:24:02;5.60;99.90
37956;DHT22;23776;51.592;7.180;2022-11-20T11:26:29;5.60;99.90
37956;DHT22;23776;51.592;7.180;2022-11-20T11:29:01;5.70;99.90
37956;DHT22;23776;51.592;7.180;2022-11-20T11:31:33;5.70;93.70
37956;DHT22;23776;51.592;7.180;2022-11-20T11:34:12;5.90;14.10
37956;DHT22;23776;51.592;7.180;2022-11-20T11:36:39;5.80;1.00
37956;DHT22;23776;51.592;7.180;2022-11-20T11:39:11;5.90;99.90
37956;DHT22;23776;51.592;7.180;2022-11-20T11:41:37;6.00;99.90
37956;DHT22;23776;51.592;7.180;2022-11-20T11:44:22;6.00;99.90
37956;DHT22;23776;51.592;7.180;2022-11-20T11:47:21;6.10;99.90
37956;DHT22;23776;51.592;7.180;2022-11-20T11:49:48;6.10;99.90
37956;DHT22;23776;51.592;7.180;2022-11-20T11:52:18;6.10;99.90
37956;DHT22;23776;51.592;7.180;2022-11-20T11:54:55;6.10;11.30
37956;DHT22;23776;51.592;7.180;2022-11-20T11:57:48;6.30;34.80
37956;DHT22;23776;51.592;7.180;2022-11-20T12:00:17;6.60;99.90
37956;DHT22;23776;51.592;7.180;2022-11-20T12:05:28;7.20;99.90
37956;DHT22;23776;51.592;7.180;2022-11-20T12:07:58;7.30;99.90
37956;DHT22;23776;51.592;7.180;2022-11-20T12:10:45;7.40;1.00
37956;DHT22;23776;51.592;7.180;2022-11-20T12:16:00;6.80;38.00
37956;DHT22;23776;51.592;7.180;2022-11-20T12:18:27;6.80;66.90
37956;DHT22;23776;51.592;7.180;2022-11-20T12:21:06;6.60;99.90
37956;DHT22;23776;51.592;7.180;2022-11-20T12:23:44;6.60;99.90
37956;DHT22;23776;51.592;7.180;2022-11-20T12:29:39;6.60;99.90
37956;DHT22;23776;51.592;7.180;2022-11-20T12:35:24;6.50;1.00
37956;DHT22;23776;51.592;7.180;2022-11-20T12:38:12;6.50;1.00
37956;DHT22;23776;51.592;7.180;2022-11-20T12:41:09;6.40;80.50
37956;DHT22;23776;51.592;7.180;2022-11-20T12:43:59;6.40;99.90
37956;DHT22;23776;51.592;7.180;2022-11-20T12:47:13;6.20;99.90
37956;DHT22;23776;51.592;7.180;2022-11-20T12:50:22;6.00;99.90
37956;DHT22;23776;51.592;7.180;2022-11-20T12:53:04;5.80;99.90
37956;DHT22;23776;51.592;7.180;2022-11-20T13:07:01;5.20;99.90
37956;DHT22;23776;51.592;7.180;2022-11-20T13:09:27;5.20;1.00
37956;DHT22;23776;51.592;7.180;2022-11-20T13:20:02;5.10;1.00
37956;DHT22;23776;51.592;7.180;2022-11-20T13:22:46;5.10;99.90
37956;DHT22;23776;51.592;7.180;2022-11-20T13:27:53;5.10;99.90
37956;DHT22;23776;51.592;7.180;2022-11-20T13:30:21;5.10;99.90
37956;DHT22;23776;51.592;7.180;2022-11-20T13:32:55;5.10;99.90
37956;DHT22;23776;51.592;7.180;2022-11-20T13:38:20;5.10;1.00
37956;DHT22;23776;51.592;7.180;2022-11-20T13:40:58;5.20;1.00
37956;DHT22;23776;51.592;7.180;2022-11-20T13:43:42;5.20;1.10
37956;DHT22;23776;51.592;7.180;2022-11-20T13:46:10;5.20;1.00
37956;DHT22;23776;51.592;7.180;2022-11-20T13:48:41;5.20;1.00
37956;DHT22;23776;51.592;7.180;2022-11-20T13:56:28;5.10;99.90
37956;DHT22;23776;51.592;7.180;2022-11-20T14:01:25;5.10;99.90
37956;DHT22;23776;51.592;7.180;2022-11-20T14:03:52;5.10;30.50
37956;DHT22;23776;51.592;7.180;2022-11-20T14:06:29;5.10;99.90
37956;DHT22;23776;51.592;7.180;2022-11-20T14:08:56;5.10;99.90
37956;DHT22;23776;51.592;7.180;2022-11-20T14:11:24;5.10;99.90
37956;DHT22;23776;51.592;7.180;2022-11-20T14:14:13;5.00;99.90
37956;DHT22;23776;51.592;7.180;2022-11-20T14:16:40;5.00;99.90
37956;DHT22;23776;51.592;7.180;2022-11-20T14:21:47;4.90;99.90
37956;DHT22;23776;51.592;7.180;2022-11-20T14:24:18;5.00;1.00
37956;DHT22;23776;51.592;7.180;2022-11-20T14:26:45;5.00;1.00
37956;DHT22;23776;51.592;7.180;2022-11-20T14:29:26;4.90;1.00
37956;DHT22;23776;51.592;7.180;2022-11-20T14:31:53;4.90;20.10
37956;DHT22;23776;51.592;7.180;2022-11-20T14:34:28;4.80;99.90
37956;DHT22;23776;51.592;7.180;2022-11-20T14:37:04;4.70;99.90
37956;DHT22;23776;51.592;7.180;2022-11-20T14:39:37;4.70;99.90
37956;DHT22;23776;51.592;7.180;2022-11-20T14:42:16;4.70;1.00
37956;DHT22;23776;51.592;7.180;2022-11-20T14:44:43;4.70;1.00
37956;DHT22;23776;51.592;7.180;2022-11-20T14:47:12;4.70;19.70
37956;DHT22;23776;51.592;7.180;2022-11-20T14:49:38;4.70;53.70
37956;DHT22;23776;51.592;7.180;2022-11-20T14:52:17;4.70;99.90
37956;DHT22;23776;51.592;7.180;2022-11-20T14:54:49;4.60;99.90
37956;DHT22;23776;51.592;7.180;2022-11-20T14:57:29;4.60;99.90
37956;DHT22;23776;51.592;7.180;2022-11-20T15:02:46;4.50;99.90
37956;DHT22;23776;51.592;7.180;2022-11-20T15:05:13;4.50;99.90
37956;DHT22;23776;51.592;7.180;2022-11-20T15:07:41;4.50;99.90
37956;DHT22;23776;51.592;7.180;2022-11-20T15:12:45;4.40;99.90
37956;DHT22;23776;51.592;7.180;2022-11-20T15:15:12;4.40;99.90
37956;DHT22;23776;51.592;7.180;2022-11-20T15:17:40;4.40;99.90
37956;DHT22;23776;51.592;7.180;2022-11-20T15:20:14;4.40;1.00
37956;DHT22;23776;51.592;7.180;2022-11-20T15:22:41;4.40;1.00
37956;DHT22;23776;51.592;7.180;2022-11-20T15:25:15;4.40;1.00
37956;DHT22;23776;51.592;7.180;2022-11-20T15:27:42;4.30;1.00
37956;DHT22;23776;51.592;7.180;2022-11-20T15:30:16;4.50;1.00
37956;DHT22;23776;51.592;7.180;2022-11-20T15:32:43;4.30;1.00
37956;DHT22;23776;51.592;7.180;2022-11-20T15:35:09;4.30;1.00
37956;DHT22;23776;51.592;7.180;2022-11-20T15:37:36;4.20;1.00
37956;DHT22;23776;51.592;7.180;2022-11-20T15:40:03;4.20;1.00
37956;DHT22;23776;51.592;7.180;2022-11-20T15:42:28;4.20;1.00
37956;DHT22;23776;51.592;7.180;2022-11-20T15:44:54;4.20;1.00
37956;DHT22;23776;51.592;7.180;2022-11-20T15:47:28;4.20;1.00
37956;DHT22;23776;51.592;7.180;2022-11-20T15:49:54;4.20;1.00
37956;DHT22;23776;51.592;7.180;2022-11-20T15:52:20;4.20;1.00
37956;DHT22;23776;51.592;7.180;2022-11-20T15:54:45;4.10;1.00
37956;DHT22;23776;51.592;7.180;2022-11-20T15:57:11;4.10;1.00
37956;DHT22;23776;51.592;7.180;2022-11-20T15:59:38;4.10;1.00
37956;DHT22;23776;51.592;7.180;2022-11-20T16:02:13;4.10;1.00
37956;DHT22;23776;51.592;7.180;2022-11-20T16:04:39;4.00;1.00
37956;DHT22;23776;51.592;7.180;2022-11-20T16:07:05;4.00;1.00
37956;DHT22;23776;51.592;7.180;2022-11-20T16:09:30;4.00;1.00
37956;DHT22;23776;51.592;7.180;2022-11-20T16:11:56;3.90;1.00
37956;DHT22;23776;51.592;7.180;2022-11-20T16:14:25;3.90;1.00
37956;DHT22;23776;51.592;7.180;2022-11-20T16:17:09;4.00;1.00
37956;DHT22;23776;51.592;7.180;2022-11-20T16:19:34;3.90;1.00
37956;DHT22;23776;51.592;7.180;2022-11-20T16:22:00;3.90;1.00
37956;DHT22;23776;51.592;7.180;2022-11-20T16:24:28;3.90;1.00
37956;DHT22;23776;51.592;7.180;2022-11-20T16:26:55;3.90;1.00
37956;DHT22;23776;51.592;7.180;2022-11-20T16:29:21;4.00;1.00
37956;DHT22;23776;51.592;7.180;2022-11-20T16:31:47;4.00;1.00
37956;DHT22;23776;51.592;7.180;2022-11-20T16:34:12;3.90;1.00
37956;DHT22;23776;51.592;7.180;2022-11-20T16:36:41;3.90;1.00
37956;DHT22;23776;51.592;7.180;2022-11-20T16:39:07;3.90;1.00
37956;DHT22;23776;51.592;7.180;2022-11-20T16:41:34;3.90;1.00
37956;DHT22;23776;51.592;7.180;2022-11-20T16:44:06;3.90;1.00
37956;DHT22;23776;51.592;7.180;2022-11-20T16:46:32;3.90;1.00
37956;DHT22;23776;51.592;7.180;2022-11-20T16:49:06;3.90;1.00
37956;DHT22;23776;51.592;7.180;2022-11-20T16:51:34;3.80;1.00
37956;DHT22;23776;51.592;7.180;2022-11-20T16:54:02;3.80;1.00
37956;DHT22;23776;51.592;7.180;2022-11-20T16:56:27;3.80;1.00
37956;DHT22;23776;51.592;7.180;2022-11-20T16:58:56;3.80;1.00
37956;DHT22;23776;51.592;7.180;2022-11-20T17:01:23;3.90;1.00
37956;DHT22;23776;51.592;7.180;2022-11-20T17:04:00;3.80;1.00
37956;DHT22;23776;51.592;7.180;2022-11-20T17:06:29;3.90;1.00
37956;DHT22;23776;51.592;7.180;2022-11-20T17:08:56;3.90;1.00
37956;DHT22;23776;51.592;7.180;2022-11-20T17:11:22;3.90;1.00
37956;DHT22;23776;51.592;7.180;2022-11-20T17:13:50;3.90;1.00
37956;DHT22;23776;51.592;7.180;2022-11-20T17:16:20;3.90;1.00
37956;DHT22;23776;51.592;7.180;2022-11-20T17:18:46;3.90;1.00
37956;DHT22;23776;51.592;7.180;2022-11-20T17:21:14;3.90;1.00
37956;DHT22;23776;51.592;7.180;2022-11-20T17:23:42;3.90;1.00